createdAt,value
2022-08-22T00:00:45.459Z,2.38
2022-08-22T00:02:58.608Z,0.85
2022-08-22T00:03:09.503Z,2.35
2022-08-22T00:05:51.479Z,2.42
2022-08-22T00:08:22.985Z,2.60
2022-08-22T00:10:54.835Z,1.92
2022-08-22T00:13:26.344Z,1.98
2022-08-22T00:15:58.196Z,2.00
2022-08-22T00:18:29.711Z,2.60
2022-08-22T00:21:01.553Z,1.85
2022-08-22T00:23:33.267Z,2.75
2022-08-22T00:26:05.187Z,1.90
2022-08-22T00:28:36.938Z,2.45
2022-08-22T00:31:09.080Z,2.00
2022-08-22T00:33:41.049Z,2.17
2022-08-22T00:36:12.887Z,1.93
2022-08-22T00:38:44.395Z,2.17
2022-08-22T00:41:16.599Z,2.03
2022-08-22T00:43:48.172Z,2.53
2022-08-22T00:46:20.012Z,2.47
2022-08-22T00:48:51.568Z,2.28
2022-08-22T00:51:23.415Z,2.53
2022-08-22T00:53:54.934Z,2.65
2022-08-22T00:56:26.778Z,2.63
2022-08-22T00:58:58.379Z,2.30
2022-08-22T01:01:30.467Z,2.33
2022-08-22T01:04:02.008Z,2.20
2022-08-22T01:06:33.814Z,2.47
2022-08-22T01:09:05.465Z,2.35
2022-08-22T01:11:37.366Z,2.40
2022-08-22T01:14:08.896Z,1.90
2022-08-22T01:16:41.054Z,2.20
2022-08-22T01:19:12.633Z,2.63
2022-08-22T01:21:44.512Z,2.45
2022-08-22T01:24:16.080Z,2.67
2022-08-22T01:29:28.416Z,2.15
2022-08-22T01:32:00.588Z,2.28
2022-08-22T01:34:32.447Z,2.00
2022-08-22T01:37:04.493Z,2.40
2022-08-22T01:39:36.043Z,2.47
2022-08-22T01:42:07.931Z,2.38
2022-08-22T01:44:39.464Z,2.42
2022-08-22T01:47:11.441Z,2.42
2022-08-22T01:49:42.955Z,2.90
2022-08-22T01:52:14.806Z,2.45
2022-08-22T01:54:50.993Z,2.22
2022-08-22T01:57:22.846Z,2.33
2022-08-22T01:59:54.504Z,2.25
2022-08-22T02:02:26.346Z,2.33
2022-08-22T02:04:58.190Z,1.98
2022-08-22T02:07:32.211Z,2.50
2022-08-22T02:10:04.237Z,2.58
2022-08-22T02:12:35.742Z,1.65
2022-08-22T02:15:07.528Z,2.40
2022-08-22T02:17:39.048Z,2.17
2022-08-22T02:20:11.007Z,2.53
2022-08-22T02:22:44.611Z,2.38
2022-08-22T02:25:16.819Z,1.92
2022-08-22T02:27:48.348Z,2.38
2022-08-22T02:30:20.193Z,2.10
2022-08-22T02:32:51.713Z,2.42
2022-08-22T02:35:23.784Z,3.03
2022-08-22T02:37:55.485Z,2.73
2022-08-22T02:40:27.448Z,2.10
2022-08-22T02:42:59.008Z,2.00
2022-08-22T02:45:30.892Z,2.60
2022-08-22T02:48:02.418Z,2.30
2022-08-22T02:50:34.268Z,1.77
2022-08-22T02:53:05.790Z,2.22
2022-08-22T02:55:40.038Z,1.83
2022-08-22T02:58:11.887Z,2.05
2022-08-22T03:00:43.901Z,1.95
2022-08-22T03:03:16.228Z,2.00
2022-08-22T03:05:48.439Z,1.73
2022-08-22T03:08:20.081Z,2.07
2022-08-22T03:10:53.654Z,1.95
2022-08-22T03:13:25.182Z,1.95
2022-08-22T03:15:57.049Z,2.45
2022-08-22T03:18:28.646Z,2.20
2022-08-22T03:21:00.597Z,2.42
2022-08-22T03:23:32.164Z,2.10
2022-08-22T03:26:07.700Z,2.47
2022-08-22T03:28:39.703Z,1.98
2022-08-22T03:31:30.883Z,2.45
2022-08-22T03:34:02.402Z,2.53
2022-08-22T03:36:33.987Z,2.65
2022-08-22T03:39:07.262Z,2.25
2022-08-22T03:41:44.206Z,2.08
2022-08-22T03:44:15.734Z,2.30
2022-08-22T03:46:47.661Z,2.50
2022-08-22T03:49:19.495Z,2.30
2022-08-22T03:51:51.072Z,2.35
2022-08-22T03:54:22.633Z,2.17
2022-08-22T03:56:57.544Z,2.30
2022-08-22T03:59:32.063Z,2.28
2022-08-22T04:02:03.650Z,2.38
2022-08-22T04:04:55.771Z,2.33
2022-08-22T04:07:28.180Z,2.33
2022-08-22T04:10:04.382Z,2.17
2022-08-22T04:12:35.934Z,2.35
2022-08-22T04:15:07.775Z,2.20
2022-08-22T04:17:39.303Z,2.50
2022-08-22T04:20:11.263Z,2.47
2022-08-22T04:22:42.769Z,2.97
2022-08-22T04:25:14.612Z,2.17
2022-08-22T04:27:46.327Z,2.22
2022-08-22T04:30:18.315Z,2.38
2022-08-22T04:32:50.023Z,1.98
2022-08-22T04:35:21.895Z,2.20
2022-08-22T04:37:53.429Z,2.13
2022-08-22T04:40:25.531Z,2.15
2022-08-22T04:42:57.109Z,2.03
2022-08-22T04:45:29.523Z,1.92
2022-08-22T04:48:01.082Z,2.08
2022-08-22T04:50:34.275Z,2.22
2022-08-22T04:53:05.919Z,2.05
2022-08-22T04:55:37.863Z,2.40
2022-08-22T04:58:09.441Z,1.80
2022-08-22T05:00:41.487Z,2.30
2022-08-22T05:03:13.076Z,2.90
2022-08-22T05:05:44.653Z,1.85
2022-08-22T05:08:16.179Z,2.15
2022-08-22T05:10:48.477Z,1.60
2022-08-22T05:13:20.004Z,2.08
2022-08-22T05:15:51.998Z,2.00
2022-08-22T05:18:23.533Z,2.42
2022-08-22T05:20:57.899Z,2.15
2022-08-22T05:23:29.490Z,1.80
2022-08-22T05:26:01.026Z,1.77
2022-08-22T05:28:33.679Z,1.65
2022-08-22T05:31:05.225Z,1.60
2022-08-22T05:33:36.935Z,1.80
2022-08-22T05:36:11.494Z,2.42
2022-08-22T05:38:43.007Z,2.10
2022-08-22T05:41:14.553Z,2.15
2022-08-22T05:43:46.338Z,2.03
2022-08-22T05:46:18.176Z,2.38
2022-08-22T05:48:49.731Z,2.50
2022-08-22T05:51:22.074Z,3.10
2022-08-22T05:53:53.588Z,2.83
2022-08-22T05:56:26.343Z,2.78
2022-08-22T05:58:59.997Z,2.95
2022-08-22T06:01:31.685Z,3.28
2022-08-22T06:04:04.350Z,3.08
2022-08-22T06:06:35.898Z,3.10
2022-08-22T06:09:07.436Z,3.40
2022-08-22T06:11:39.008Z,2.90
2022-08-22T06:14:10.671Z,3.03
2022-08-22T06:16:47.578Z,2.78
2022-08-22T06:19:20.537Z,2.47
2022-08-22T06:21:52.084Z,2.88
2022-08-22T06:24:24.746Z,2.25
2022-08-22T06:26:56.765Z,2.30
2022-08-22T06:29:28.334Z,2.10
2022-08-22T06:31:59.887Z,2.45
2022-08-22T06:34:31.425Z,2.50
2022-08-22T06:37:03.330Z,3.20
2022-08-22T06:39:34.902Z,3.33
2022-08-22T06:42:11.155Z,3.40
2022-08-22T06:44:44.872Z,3.35
2022-08-22T06:47:16.781Z,3.10
2022-08-22T06:49:48.623Z,3.05
2022-08-22T06:52:20.170Z,2.95
2022-08-22T06:54:52.434Z,2.45
2022-08-22T06:57:23.980Z,2.95
2022-08-22T06:59:55.520Z,1.98
2022-08-22T07:02:27.472Z,2.20
2022-08-22T07:04:59.595Z,2.40
2022-08-22T07:07:31.409Z,2.20
2022-08-22T07:10:03.284Z,2.47
2022-08-22T07:12:35.658Z,2.53
2022-08-22T07:15:07.606Z,3.15
2022-08-22T07:17:40.733Z,2.83
2022-08-22T07:20:12.349Z,3.00
2022-08-22T07:22:43.876Z,3.30
2022-08-22T07:25:15.672Z,3.30
2022-08-22T07:27:48.964Z,2.78
2022-08-22T07:30:27.892Z,2.58
2022-08-22T07:33:21.073Z,2.55
2022-08-22T07:35:53.448Z,1.95
2022-08-22T07:38:25.375Z,2.28
2022-08-22T07:40:57.396Z,2.13
2022-08-22T07:43:29.282Z,2.00
2022-08-22T07:46:00.798Z,1.90
2022-08-22T07:48:33.489Z,2.15
2022-08-22T07:51:05.362Z,2.38
2022-08-22T07:53:36.909Z,1.50
2022-08-22T07:56:08.480Z,1.42
2022-08-22T07:58:40.031Z,1.90
2022-08-22T08:01:11.647Z,1.60
2022-08-22T08:03:43.588Z,1.77
2022-08-22T08:06:15.418Z,1.77
2022-08-22T08:08:47.301Z,1.40
2022-08-22T08:11:18.962Z,1.42
2022-08-22T08:13:50.822Z,1.55
2022-08-22T08:16:22.374Z,1.50
2022-08-22T08:18:54.268Z,1.00
2022-08-22T08:21:25.980Z,1.08
2022-08-22T08:23:58.025Z,1.35
2022-08-22T08:26:29.616Z,1.00
2022-08-22T08:29:01.437Z,1.13
2022-08-22T08:31:35.265Z,1.20
2022-08-22T08:34:07.181Z,1.08
2022-08-22T08:36:38.792Z,0.85
2022-08-22T08:39:14.061Z,0.95
2022-08-22T08:41:45.600Z,0.90
2022-08-22T08:44:17.522Z,0.80
2022-08-22T08:46:55.922Z,0.70
2022-08-22T08:49:29.745Z,1.05
2022-08-22T08:52:05.130Z,1.10
2022-08-22T08:54:36.691Z,1.17
2022-08-22T08:57:08.206Z,0.98
2022-08-22T08:59:44.186Z,0.90
2022-08-22T09:02:20.359Z,0.93
2022-08-22T09:04:52.281Z,0.95
2022-08-22T09:07:23.818Z,1.23
2022-08-22T09:09:55.911Z,0.90
2022-08-22T09:12:27.926Z,0.83
2022-08-22T09:14:59.613Z,1.10
2022-08-22T09:17:32.079Z,0.90
2022-08-22T09:20:17.829Z,0.90
2022-08-22T09:22:51.409Z,1.02
2022-08-22T09:25:23.665Z,1.10
2022-08-22T09:27:55.688Z,1.02
2022-08-22T09:30:27.703Z,1.02
2022-08-22T09:33:00.995Z,0.95
2022-08-22T09:35:32.531Z,0.95
2022-08-22T09:38:04.445Z,1.13
2022-08-22T09:40:36.192Z,0.70
2022-08-22T09:43:08.826Z,0.73
2022-08-22T09:45:42.926Z,1.10
2022-08-22T09:48:14.664Z,1.00
2022-08-22T09:50:46.763Z,0.90
2022-08-22T09:53:19.032Z,0.80
2022-08-22T09:55:50.537Z,1.05
2022-08-22T09:58:23.619Z,0.90
2022-08-22T10:00:55.636Z,0.95
2022-08-22T10:03:28.191Z,1.00
2022-08-22T10:06:02.034Z,1.00
2022-08-22T10:08:37.300Z,1.00
2022-08-22T10:11:09.350Z,1.20
2022-08-22T10:13:41.461Z,1.02
2022-08-22T10:16:13.418Z,0.93
2022-08-22T10:18:52.854Z,0.88
2022-08-22T10:21:26.954Z,1.10
2022-08-22T10:24:01.028Z,1.13
2022-08-22T10:26:37.858Z,0.93
2022-08-22T10:29:10.242Z,1.23
2022-08-22T10:31:58.768Z,1.20
2022-08-22T10:34:31.219Z,0.90
2022-08-22T10:37:02.767Z,1.30
2022-08-22T10:39:34.344Z,1.08
2022-08-22T10:42:05.986Z,1.65
2022-08-22T10:44:37.873Z,0.90
2022-08-22T10:47:09.915Z,1.08
2022-08-22T10:49:42.449Z,0.70
2022-08-22T10:52:15.911Z,1.00
2022-08-22T10:54:51.267Z,0.90
2022-08-22T10:57:23.482Z,0.90
2022-08-22T10:59:55.182Z,0.60
2022-08-22T11:02:27.053Z,0.70
2022-08-22T11:04:58.636Z,0.77
2022-08-22T11:07:31.168Z,0.73
2022-08-22T11:10:02.722Z,1.00
2022-08-22T11:12:35.460Z,0.77
2022-08-22T11:15:07.500Z,0.70
2022-08-22T11:17:44.780Z,0.88
2022-08-22T11:20:25.558Z,0.80
2022-08-22T11:22:57.243Z,1.00
2022-08-22T11:25:38.762Z,0.98
2022-08-22T11:28:11.058Z,1.20
2022-08-22T11:33:18.006Z,0.93
2022-08-22T11:35:49.655Z,0.88
2022-08-22T11:38:28.065Z,0.80
2022-08-22T11:41:05.459Z,0.80
2022-08-22T11:43:37.194Z,0.82
2022-08-22T11:46:09.025Z,0.80
2022-08-22T11:48:41.736Z,1.10
2022-08-22T11:51:24.968Z,0.80
2022-08-22T11:53:56.769Z,0.80
2022-08-22T11:56:29.230Z,0.73
2022-08-22T11:59:01.373Z,0.68
2022-08-22T12:01:34.305Z,0.70
2022-08-22T12:04:06.104Z,0.90
2022-08-22T12:06:43.117Z,1.00
2022-08-22T12:09:14.843Z,0.80
2022-08-22T12:11:49.923Z,0.85
2022-08-22T12:14:21.489Z,0.90
2022-08-22T12:16:58.728Z,0.85
2022-08-22T12:22:04.934Z,0.82
2022-08-22T12:24:39.080Z,0.98
2022-08-22T12:27:13.121Z,1.15
2022-08-22T12:29:50.002Z,1.27
2022-08-22T12:32:27.867Z,1.10
2022-08-22T12:34:59.722Z,1.10
2022-08-22T12:37:33.121Z,0.90
2022-08-22T12:40:26.301Z,1.00
2022-08-22T12:42:59.197Z,0.73
2022-08-22T12:45:30.758Z,1.00
2022-08-22T12:48:02.525Z,0.80
2022-08-22T12:50:34.152Z,0.80
2022-08-22T12:53:06.408Z,0.93
2022-08-22T12:55:38.970Z,0.80
2022-08-22T12:58:11.545Z,1.30
2022-08-22T13:00:45.443Z,1.15
2022-08-22T13:03:17.156Z,0.70
2022-08-22T13:05:56.860Z,0.80
2022-08-22T13:11:03.366Z,1.05
2022-08-22T13:13:41.301Z,0.95
2022-08-22T13:16:13.168Z,0.95
2022-08-22T13:18:45.159Z,0.80
2022-08-22T13:21:17.100Z,0.60
2022-08-22T13:23:53.168Z,0.65
2022-08-22T13:26:31.864Z,0.75
2022-08-22T13:29:26.108Z,1.00
2022-08-22T13:32:00.680Z,0.80
2022-08-22T13:34:34.834Z,0.90
2022-08-22T13:37:11.757Z,0.90
2022-08-22T13:39:43.296Z,0.90
2022-08-22T13:42:27.688Z,0.98
2022-08-22T13:45:04.888Z,0.90
2022-08-22T13:47:39.307Z,0.80
2022-08-22T13:50:11.344Z,0.80
2022-08-22T13:52:43.247Z,0.85
2022-08-22T13:55:20.908Z,0.80
2022-08-22T13:57:52.759Z,0.80
2022-08-22T14:00:29.327Z,0.90
2022-08-22T14:03:01.526Z,0.63
2022-08-22T14:05:37.607Z,1.02
2022-08-22T14:08:12.813Z,0.77
2022-08-22T14:10:45.485Z,0.80
2022-08-22T14:13:17.523Z,0.90
2022-08-22T14:15:49.366Z,1.15
2022-08-22T14:18:29.975Z,1.15
2022-08-22T14:21:02.158Z,0.90
2022-08-22T14:23:34.459Z,0.98
2022-08-22T14:26:06.369Z,0.80
2022-08-22T14:28:44.306Z,1.00
2022-08-22T14:31:16.186Z,1.00
2022-08-22T14:33:48.893Z,0.80
2022-08-22T14:36:21.038Z,0.93
2022-08-22T14:38:53.237Z,0.80
2022-08-22T14:41:25.222Z,1.00
2022-08-22T14:43:56.948Z,1.27
2022-08-22T14:46:28.938Z,0.97
2022-08-22T14:49:00.727Z,1.20
2022-08-22T14:51:32.983Z,1.40
2022-08-22T14:54:04.518Z,1.00
2022-08-22T14:56:36.679Z,1.10
2022-08-22T14:59:08.219Z,1.08
2022-08-22T15:01:40.143Z,0.93
2022-08-22T15:04:14.591Z,1.05
2022-08-22T15:06:50.779Z,1.00
2022-08-22T15:09:22.430Z,0.90
2022-08-22T15:11:54.276Z,1.20
2022-08-22T15:14:28.024Z,1.25
2022-08-22T15:16:59.901Z,0.70
2022-08-22T15:19:31.434Z,1.38
2022-08-22T15:22:03.419Z,1.30
2022-08-22T15:24:35.331Z,1.27
2022-08-22T15:27:07.172Z,1.10
2022-08-22T15:32:11.763Z,1.00
2022-08-22T15:34:47.471Z,1.00
2022-08-22T15:37:24.409Z,1.58
2022-08-22T15:39:55.978Z,1.10
2022-08-22T15:42:27.871Z,0.80
2022-08-22T15:44:59.407Z,0.82
2022-08-22T15:47:34.858Z,0.90
2022-08-22T15:50:07.761Z,1.00
2022-08-22T15:52:39.610Z,0.88
2022-08-22T15:55:13.663Z,0.73
2022-08-22T15:57:45.243Z,0.95
2022-08-22T16:00:17.353Z,0.75
2022-08-22T16:02:48.904Z,0.90
2022-08-22T16:05:20.484Z,1.10
2022-08-22T16:07:52.400Z,0.88
2022-08-22T16:10:23.941Z,0.90
2022-08-22T16:12:55.899Z,1.02
2022-08-22T16:15:27.438Z,1.10
2022-08-22T16:18:02.319Z,0.98
2022-08-22T16:20:33.846Z,0.88
2022-08-22T16:23:05.439Z,0.70
2022-08-22T16:25:36.971Z,0.98
2022-08-22T16:28:09.009Z,0.73
2022-08-22T16:30:40.619Z,1.00
2022-08-22T16:33:18.391Z,0.80
2022-08-22T16:35:50.702Z,0.98
2022-08-22T16:38:22.214Z,0.82
2022-08-22T16:40:54.073Z,1.10
2022-08-22T16:43:28.953Z,0.60
2022-08-22T16:46:00.988Z,0.82
2022-08-22T16:48:32.571Z,0.88
2022-08-22T16:51:04.424Z,0.88
2022-08-22T16:53:35.971Z,0.88
2022-08-22T16:56:07.659Z,0.60
2022-08-22T16:58:56.168Z,0.85
2022-08-22T17:01:29.386Z,1.00
2022-08-22T17:04:01.038Z,0.80
2022-08-22T17:06:33.788Z,0.80
2022-08-22T17:09:05.340Z,0.70
2022-08-22T17:11:36.991Z,1.00
2022-08-22T17:14:08.518Z,0.80
2022-08-22T17:16:40.472Z,1.00
2022-08-22T17:19:12.020Z,0.80
2022-08-22T17:21:51.778Z,0.90
2022-08-22T17:24:31.658Z,1.02
2022-08-22T17:27:05.781Z,0.70
2022-08-22T17:29:38.185Z,0.95
2022-08-22T17:32:10.112Z,0.60
2022-08-22T17:34:41.688Z,0.70
2022-08-22T17:37:13.829Z,0.88
2022-08-22T17:39:45.405Z,0.60
2022-08-22T17:42:21.165Z,0.88
2022-08-22T17:44:52.887Z,0.70
2022-08-22T17:47:24.844Z,1.00
2022-08-22T17:49:56.400Z,0.90
2022-08-22T17:52:28.234Z,0.70
2022-08-22T17:54:59.766Z,1.02
2022-08-22T17:57:31.675Z,0.98
2022-08-22T18:00:06.105Z,0.80
2022-08-22T18:02:40.151Z,0.90
2022-08-22T18:05:12.059Z,0.77
2022-08-22T18:07:43.604Z,0.68
2022-08-22T18:10:15.591Z,0.70
2022-08-22T18:12:47.245Z,0.53
2022-08-22T18:15:21.136Z,0.90
2022-08-22T18:17:52.681Z,1.30
2022-08-22T18:20:24.220Z,0.90
2022-08-22T18:22:55.805Z,0.80
2022-08-22T18:25:27.553Z,0.90
2022-08-22T18:27:59.236Z,0.70
2022-08-22T18:30:31.174Z,0.70
2022-08-22T18:33:02.837Z,0.63
2022-08-22T18:35:37.062Z,0.70
2022-08-22T18:38:19.644Z,0.80
2022-08-22T18:40:52.353Z,0.90
2022-08-22T18:43:24.095Z,0.70
2022-08-22T18:45:58.187Z,0.63
2022-08-22T18:48:31.816Z,0.85
2022-08-22T18:51:03.642Z,0.50
2022-08-22T18:53:35.152Z,0.70
2022-08-22T18:56:07.055Z,0.95
2022-08-22T18:58:38.759Z,1.08
2022-08-22T19:01:10.683Z,1.25
2022-08-22T19:03:43.848Z,1.08
2022-08-22T19:06:15.826Z,0.95
2022-08-22T19:08:52.999Z,0.88
2022-08-22T19:11:26.635Z,0.88
2022-08-22T19:16:29.717Z,1.00
2022-08-22T19:19:01.296Z,0.90
2022-08-22T19:21:51.902Z,1.10
2022-08-22T19:24:23.461Z,0.90
2022-08-22T19:26:55.380Z,0.80
2022-08-22T19:29:26.979Z,0.73
2022-08-22T19:31:59.029Z,0.60
2022-08-22T19:34:32.608Z,0.93
2022-08-22T19:37:04.529Z,0.75
2022-08-22T19:39:36.072Z,1.10
2022-08-22T19:42:07.919Z,1.55
2022-08-22T19:44:45.800Z,0.80
2022-08-22T19:47:17.355Z,0.85
2022-08-22T19:49:50.109Z,1.30
2022-08-22T19:52:21.768Z,1.00
2022-08-22T19:54:53.319Z,0.88
2022-08-22T19:57:25.152Z,0.90
2022-08-22T20:00:00.139Z,1.05
2022-08-22T20:02:35.980Z,1.02
2022-08-22T20:05:13.339Z,1.00
2022-08-22T20:07:46.183Z,1.00
2022-08-22T20:10:18.084Z,1.00
2022-08-22T20:12:49.610Z,1.00
2022-08-22T20:15:21.868Z,1.17
2022-08-22T20:20:45.228Z,0.75
2022-08-22T20:23:16.764Z,1.10
2022-08-22T20:25:50.446Z,0.90
2022-08-22T20:28:21.974Z,1.15
2022-08-22T20:30:53.813Z,0.82
2022-08-22T20:33:25.339Z,0.80
2022-08-22T20:35:59.500Z,0.75
2022-08-22T20:38:32.272Z,0.88
2022-08-22T20:41:11.125Z,0.60
2022-08-22T20:43:43.352Z,1.05
2022-08-22T20:46:15.542Z,0.70
2022-08-22T20:48:47.111Z,0.80
2022-08-22T20:51:19.349Z,0.75
2022-08-22T20:53:50.870Z,0.93
2022-08-22T20:56:22.716Z,0.80
2022-08-22T20:58:57.068Z,1.00
2022-08-22T21:01:32.592Z,0.70
2022-08-22T21:04:04.141Z,1.10
2022-08-22T21:06:38.010Z,0.80
2022-08-22T21:09:29.550Z,1.00
2022-08-22T21:12:01.387Z,0.98
2022-08-22T21:14:32.956Z,1.30
2022-08-22T21:17:04.850Z,0.90
2022-08-22T21:19:36.723Z,0.85
2022-08-22T21:22:08.240Z,1.17
2022-08-22T21:24:40.289Z,0.82
2022-08-22T21:27:14.183Z,0.90
2022-08-22T21:29:45.761Z,1.20
2022-08-22T21:32:17.277Z,0.93
2022-08-22T21:34:49.277Z,0.70
2022-08-22T21:37:20.857Z,1.13
2022-08-22T21:39:52.743Z,0.90
2022-08-22T21:42:24.314Z,1.02
2022-08-22T21:44:56.423Z,0.90
2022-08-22T21:47:30.766Z,1.20
2022-08-22T21:50:03.303Z,1.23
2022-08-22T21:52:34.857Z,1.20
2022-08-22T21:55:06.863Z,1.20
2022-08-22T21:57:38.481Z,0.88
2022-08-22T22:00:13.274Z,1.10
2022-08-22T22:02:44.839Z,0.95
2022-08-22T22:05:16.991Z,0.90
2022-08-22T22:07:48.689Z,1.27
2022-08-22T22:10:20.647Z,1.23
2022-08-22T22:12:52.521Z,1.50
2022-08-22T22:15:24.488Z,1.20
2022-08-22T22:17:56.189Z,1.07
2022-08-22T22:20:28.097Z,1.23
2022-08-22T22:22:59.818Z,1.42
2022-08-22T22:25:40.446Z,1.50
2022-08-22T22:28:13.773Z,1.38
2022-08-22T22:30:45.379Z,1.42
2022-08-22T22:33:17.312Z,1.75
2022-08-22T22:35:48.855Z,1.35
2022-08-22T22:38:24.096Z,1.23
2022-08-22T22:40:55.933Z,1.30
2022-08-22T22:43:28.056Z,1.13
2022-08-22T22:45:59.584Z,1.20
2022-08-22T22:48:31.628Z,1.60
2022-08-22T22:51:03.151Z,1.30
2022-08-22T22:53:40.369Z,1.20
2022-08-22T22:56:16.023Z,1.33
2022-08-22T22:58:48.011Z,1.95
2022-08-22T23:01:20.871Z,1.52
2022-08-22T23:03:52.795Z,1.50
2022-08-22T23:06:24.333Z,1.58
2022-08-22T23:08:56.359Z,1.30
2022-08-22T23:11:27.878Z,1.70
2022-08-22T23:13:59.891Z,1.67
2022-08-22T23:16:37.020Z,1.60
2022-08-22T23:19:09.530Z,1.50
2022-08-22T23:21:41.054Z,1.40
2022-08-22T23:24:12.945Z,1.45
2022-08-22T23:26:44.465Z,1.45
2022-08-22T23:29:16.330Z,1.30
2022-08-22T23:31:47.882Z,1.42
2022-08-22T23:34:21.982Z,1.45
2022-08-22T23:36:53.838Z,1.63
2022-08-22T23:39:25.357Z,1.70
2022-08-22T23:41:57.300Z,1.73
2022-08-22T23:44:28.899Z,1.92
2022-08-22T23:47:00.749Z,1.40
2022-08-22T23:49:32.304Z,1.65
2022-08-22T23:52:03.887Z,2.50
2022-08-22T23:54:35.409Z,1.30
2022-08-22T23:57:12.196Z,1.42
2022-08-22T23:59:48.440Z,1.10
